Time;durP1;ratioP1;P1;durP2;ratioP2;P2;SDS_P1;SDS_P2;PMS_P1;PMS_P2;Temp;Humidity;BMP_temperature;BMP_pressure;BME280_temperature;BME280_humidity;BME280_pressure;Samples;Min_cycle;Max_cycle;Signal;HPM_P1;HPM_P2
2021/01/25 00:02:16;;;;;;;1.98;1.08;;;;;;;;;;5054227;28;20104;-79
2021/01/25 00:04:42;;;;;;;2.38;1.00;;;;;;;;;;5052603;28;20025;-79
2021/01/25 00:07:08;;;;;;;2.40;1.10;;;;;;;;;;5053795;28;20025;-79
2021/01/25 00:09:34;;;;;;;2.10;1.20;;;;;;;;;;5053835;28;20480;-79
2021/01/25 00:12:00;;;;;;;2.00;1.10;;;;;;;;;;5053969;28;20032;-79
2021/01/25 00:14:26;;;;;;;2.05;1.00;;;;;;;;;;5052491;28;20044;-77
2021/01/25 00:16:52;;;;;;;2.30;0.93;;;;;;;;;;5053749;28;20041;-79
2021/01/25 00:19:18;;;;;;;2.13;0.90;;;;;;;;;;5053768;28;20104;-79
2021/01/25 00:21:45;;;;;;;3.17;1.00;;;;;;;;;;5053708;28;20021;-79
2021/01/25 00:24:12;;;;;;;5.15;1.25;;;;;;;;;;5053679;28;20021;-77
2021/01/25 00:26:39;;;;;;;2.70;1.20;;;;;;;;;;5052411;28;20377;-79
2021/01/25 00:29:05;;;;;;;2.35;1.17;;;;;;;;;;5052344;28;20115;-78
2021/01/25 00:31:31;;;;;;;2.83;1.30;;;;;;;;;;5052114;28;20088;-78
2021/01/25 00:33:57;;;;;;;2.80;1.20;;;;;;;;;;5052124;28;20037;-79
2021/01/25 00:36:23;;;;;;;2.22;1.10;;;;;;;;;;5051885;28;20029;-79
2021/01/25 00:38:49;;;;;;;2.95;1.00;;;;;;;;;;5052026;28;20499;-78
2021/01/25 00:41:15;;;;;;;3.13;1.10;;;;;;;;;;5053322;28;20029;-78
2021/01/25 00:43:41;;;;;;;2.65;1.30;;;;;;;;;;5051828;28;20423;-78
2021/01/25 00:46:07;;;;;;;3.05;1.30;;;;;;;;;;5051799;28;20044;-78
2021/01/25 00:48:33;;;;;;;3.33;1.30;;;;;;;;;;5053033;28;20020;-78
2021/01/25 00:50:59;;;;;;;3.47;1.25;;;;;;;;;;5053182;28;20075;-79
2021/01/25 00:53:25;;;;;;;3.30;1.30;;;;;;;;;;5053335;28;20052;-75
2021/01/25 00:55:51;;;;;;;2.22;1.10;;;;;;;;;;5052978;28;20423;-78
2021/01/25 00:58:17;;;;;;;2.47;1.00;;;;;;;;;;5053040;28;20083;-76
2021/01/25 01:00:43;;;;;;;2.72;1.17;;;;;;;;;;5052076;28;20017;-79
2021/01/25 01:03:09;;;;;;;2.20;1.13;;;;;;;;;;5051558;28;20021;-77
2021/01/25 01:05:35;;;;;;;3.85;1.30;;;;;;;;;;5052638;28;20025;-78
2021/01/25 01:08:02;;;;;;;4.10;1.10;;;;;;;;;;5052333;28;20090;-78
2021/01/25 01:10:28;;;;;;;2.38;1.08;;;;;;;;;;5052208;28;20025;-79
2021/01/25 01:12:54;;;;;;;3.33;1.20;;;;;;;;;;5052797;28;20096;-79
2021/01/25 01:15:20;;;;;;;2.45;1.10;;;;;;;;;;5051293;28;20067;-79
2021/01/25 01:17:46;;;;;;;2.38;0.98;;;;;;;;;;5051350;28;20029;-79
2021/01/25 01:20:13;;;;;;;2.33;1.10;;;;;;;;;;5052632;28;20056;-79
2021/01/25 01:22:39;;;;;;;3.40;1.20;;;;;;;;;;5052434;28;20013;-77
2021/01/25 01:25:06;;;;;;;2.50;1.10;;;;;;;;;;5052392;28;20474;-79
2021/01/25 01:27:32;;;;;;;1.60;0.90;;;;;;;;;;5052278;28;20530;-79
2021/01/25 01:29:58;;;;;;;1.95;0.93;;;;;;;;;;5052164;28;20025;-78
2021/01/25 01:32:25;;;;;;;2.88;0.98;;;;;;;;;;5050922;28;20071;-77
2021/01/25 01:34:51;;;;;;;2.42;1.15;;;;;;;;;;5051051;28;20120;-79
2021/01/25 01:37:17;;;;;;;2.45;1.08;;;;;;;;;;5051992;28;20029;-79
2021/01/25 01:39:43;;;;;;;3.95;1.20;;;;;;;;;;5050800;28;20051;-78
2021/01/25 01:42:18;;;;;;;2.50;1.10;;;;;;;;;;5050857;28;20028;-78
2021/01/25 01:44:45;;;;;;;2.58;1.00;;;;;;;;;;5050898;28;20025;-79
2021/01/25 01:47:15;;;;;;;2.20;1.00;;;;;;;;;;5050699;28;20045;-79
2021/01/25 01:49:41;;;;;;;2.25;1.08;;;;;;;;;;5052267;28;20025;-79
2021/01/25 01:52:07;;;;;;;2.90;1.10;;;;;;;;;;5052429;28;20484;-79
2021/01/25 01:54:33;;;;;;;4.35;1.20;;;;;;;;;;5051726;28;20033;-79
2021/01/25 01:56:59;;;;;;;2.65;1.00;;;;;;;;;;5051508;28;20029;-79
2021/01/25 01:59:25;;;;;;;3.05;1.20;;;;;;;;;;5050565;28;20051;-79
2021/01/25 02:01:51;;;;;;;2.97;1.48;;;;;;;;;;5051889;28;20040;-79
2021/01/25 02:04:18;;;;;;;2.17;1.13;;;;;;;;;;5051812;28;20021;-79
2021/01/25 02:06:44;;;;;;;3.15;1.20;;;;;;;;;;5050465;28;20068;-79
2021/01/25 02:09:11;;;;;;;3.30;1.33;;;;;;;;;;5051729;28;20017;-79
2021/01/25 02:11:37;;;;;;;2.40;1.10;;;;;;;;;;5050466;28;20032;-74
2021/01/25 02:14:05;;;;;;;2.55;1.10;;;;;;;;;;5051825;28;20021;-79
2021/01/25 02:16:31;;;;;;;3.75;1.73;;;;;;;;;;5050256;28;20037;-79
2021/01/25 02:18:57;;;;;;;4.53;1.27;;;;;;;;;;5051731;28;20052;-76
2021/01/25 02:21:26;;;;;;;3.13;1.23;;;;;;;;;;5051529;28;20021;-79
2021/01/25 02:24:01;;;;;;;3.50;1.40;;;;;;;;;;5050296;28;20021;-79
2021/01/25 02:26:35;;;;;;;2.72;1.10;;;;;;;;;;5051327;28;20059;-79
2021/01/25 02:29:01;;;;;;;2.60;1.10;;;;;;;;;;5051569;28;20044;-78
2021/01/25 02:31:28;;;;;;;2.70;1.20;;;;;;;;;;5050286;28;20082;-79
2021/01/25 02:33:56;;;;;;;2.67;1.13;;;;;;;;;;5051523;28;20021;-76
2021/01/25 02:36:24;;;;;;;3.08;1.35;;;;;;;;;;5051300;28;20029;-79
2021/01/25 02:38:51;;;;;;;2.90;1.30;;;;;;;;;;5051423;28;20476;-80
2021/01/25 02:41:18;;;;;;;3.65;1.33;;;;;;;;;;5050104;28;20410;-79
2021/01/25 02:43:45;;;;;;;2.50;1.20;;;;;;;;;;5051525;28;20040;-78
2021/01/25 02:46:11;;;;;;;2.50;1.15;;;;;;;;;;5051074;28;20041;-75
2021/01/25 02:48:37;;;;;;;2.03;1.10;;;;;;;;;;5051212;28;20021;-80
2021/01/25 02:51:04;;;;;;;2.67;1.20;;;;;;;;;;5049869;28;20497;-79
2021/01/25 02:53:30;;;;;;;2.95;1.30;;;;;;;;;;5051170;28;20096;-80
2021/01/25 02:55:57;;;;;;;3.85;1.30;;;;;;;;;;5049937;28;20480;-79
2021/01/25 02:58:23;;;;;;;2.85;1.20;;;;;;;;;;5051367;28;20025;-79
2021/01/25 03:00:50;;;;;;;3.13;1.33;;;;;;;;;;5051268;28;20447;-78
2021/01/25 03:03:17;;;;;;;3.20;1.20;;;;;;;;;;5049897;28;20472;-78
2021/01/25 03:05:44;;;;;;;3.25;1.45;;;;;;;;;;5049937;28;20032;-79
2021/01/25 03:08:10;;;;;;;2.90;1.25;;;;;;;;;;5049838;28;20021;-79
2021/01/25 03:10:36;;;;;;;3.33;1.40;;;;;;;;;;5051087;28;20162;-78
2021/01/25 03:13:02;;;;;;;3.15;1.30;;;;;;;;;;5051152;28;20018;-79
2021/01/25 03:15:29;;;;;;;2.60;1.20;;;;;;;;;;5051026;28;20044;-79
2021/01/25 03:17:56;;;;;;;2.83;1.38;;;;;;;;;;5051101;28;20408;-79
2021/01/25 03:20:22;;;;;;;3.85;1.60;;;;;;;;;;5049735;28;20043;-79
2021/01/25 03:22:48;;;;;;;2.85;1.40;;;;;;;;;;5051041;28;20057;-78
2021/01/25 03:25:14;;;;;;;2.22;1.13;;;;;;;;;;5050956;28;20025;-79
2021/01/25 03:27:40;;;;;;;2.97;1.30;;;;;;;;;;5051106;28;20017;-79
2021/01/25 03:30:10;;;;;;;4.28;1.52;;;;;;;;;;5049676;28;20039;-78
2021/01/25 03:32:36;;;;;;;2.70;1.40;;;;;;;;;;5052737;28;20017;-79
2021/01/25 03:35:03;;;;;;;3.53;1.52;;;;;;;;;;5054688;28;20021;-75
2021/01/25 03:37:29;;;;;;;2.67;1.33;;;;;;;;;;5053137;28;20431;-78
2021/01/25 03:39:55;;;;;;;4.07;1.27;;;;;;;;;;5054599;28;20021;-79
2021/01/25 03:42:21;;;;;;;3.05;1.30;;;;;;;;;;5053142;28;20052;-78
2021/01/25 03:44:47;;;;;;;4.25;1.45;;;;;;;;;;5054495;28;20048;-79
2021/01/25 03:47:13;;;;;;;2.60;1.30;;;;;;;;;;5052950;28;20091;-79
2021/01/25 03:49:39;;;;;;;2.80;1.33;;;;;;;;;;5054287;28;20025;-78
2021/01/25 03:52:05;;;;;;;3.97;1.33;;;;;;;;;;5054252;28;20480;-79
2021/01/25 03:54:31;;;;;;;3.83;1.60;;;;;;;;;;5054089;28;20039;-77
2021/01/25 03:56:57;;;;;;;3.25;1.42;;;;;;;;;;5053961;28;20112;-79
2021/01/25 03:59:23;;;;;;;3.85;1.67;;;;;;;;;;5054038;28;20028;-77
2021/01/25 04:01:50;;;;;;;2.83;1.48;;;;;;;;;;5053970;28;20096;-79
2021/01/25 04:04:16;;;;;;;2.95;1.40;;;;;;;;;;5053945;28;20293;-79
2021/01/25 04:06:43;;;;;;;3.53;1.67;;;;;;;;;;5054046;28;20029;-79
2021/01/25 04:09:10;;;;;;;3.55;1.30;;;;;;;;;;5052644;28;20108;-79
2021/01/25 04:11:37;;;;;;;3.38;1.45;;;;;;;;;;5053975;28;20021;-79
2021/01/25 04:14:04;;;;;;;2.80;1.33;;;;;;;;;;5053825;28;20515;-77
2021/01/25 04:16:30;;;;;;;3.28;1.70;;;;;;;;;;5052373;28;20118;-77
2021/01/25 04:18:56;;;;;;;3.25;1.60;;;;;;;;;;5052532;28;20036;-79
2021/01/25 04:21:22;;;;;;;3.10;1.40;;;;;;;;;;5053807;28;20543;-78
2021/01/25 04:23:48;;;;;;;3.00;1.40;;;;;;;;;;5054059;28;20101;-79
2021/01/25 04:26:15;;;;;;;3.42;1.45;;;;;;;;;;5052366;28;20028;-79
2021/01/25 04:28:43;;;;;;;2.97;1.40;;;;;;;;;;5052360;28;20578;-75
2021/01/25 04:31:09;;;;;;;2.50;1.30;;;;;;;;;;5052233;28;20071;-76
2021/01/25 04:33:35;;;;;;;3.40;1.50;;;;;;;;;;5053484;28;20021;-79
2021/01/25 04:36:02;;;;;;;2.88;1.15;;;;;;;;;;5053517;28;20036;-77
2021/01/25 04:38:28;;;;;;;2.83;1.20;;;;;;;;;;5053466;28;20028;-79
2021/01/25 04:40:54;;;;;;;3.10;1.25;;;;;;;;;;5053463;28;20075;-79
2021/01/25 04:43:20;;;;;;;4.03;1.50;;;;;;;;;;5051012;28;20461;-79
2021/01/25 04:45:47;;;;;;;3.47;1.60;;;;;;;;;;5052811;28;20033;-75
2021/01/25 04:48:13;;;;;;;3.50;1.48;;;;;;;;;;5053286;28;20060;-79
2021/01/25 04:50:40;;;;;;;3.78;1.42;;;;;;;;;;5053221;28;20544;-79
2021/01/25 04:53:06;;;;;;;3.00;1.40;;;;;;;;;;5051732;28;20075;-76
2021/01/25 04:55:33;;;;;;;2.88;1.20;;;;;;;;;;5052742;28;20086;-79
2021/01/25 04:58:00;;;;;;;3.20;1.40;;;;;;;;;;5052865;28;20415;-79
2021/01/25 05:00:26;;;;;;;2.95;1.33;;;;;;;;;;5053080;28;20024;-78
2021/01/25 05:02:52;;;;;;;3.10;1.50;;;;;;;;;;5051656;28;20025;-79
2021/01/25 05:05:19;;;;;;;3.17;1.50;;;;;;;;;;5052967;28;20017;-78
2021/01/25 05:07:45;;;;;;;4.13;1.70;;;;;;;;;;5051424;28;20025;-80
2021/01/25 05:10:12;;;;;;;2.63;1.30;;;;;;;;;;5052809;28;20021;-77
2021/01/25 05:12:48;;;;;;;4.38;1.42;;;;;;;;;;5051484;28;20025;-78
2021/01/25 05:15:25;;;;;;;4.32;1.63;;;;;;;;;;5052100;28;20013;-75
2021/01/25 05:17:51;;;;;;;3.83;1.65;;;;;;;;;;5052029;28;20040;-79
2021/01/25 05:20:22;;;;;;;2.85;1.23;;;;;;;;;;5052264;28;20108;-76
2021/01/25 05:22:48;;;;;;;3.03;1.63;;;;;;;;;;5052035;28;20096;-79
2021/01/25 05:25:22;;;;;;;3.13;1.30;;;;;;;;;;5051769;28;20021;-79
2021/01/25 05:27:48;;;;;;;2.67;1.20;;;;;;;;;;5050814;28;20025;-78
2021/01/25 05:30:14;;;;;;;2.60;1.27;;;;;;;;;;5051026;28;20079;-78
2021/01/25 05:32:47;;;;;;;2.92;1.30;;;;;;;;;;5051083;28;20028;-80
2021/01/25 05:35:14;;;;;;;3.60;1.70;;;;;;;;;;5052432;28;20023;-78
2021/01/25 05:37:44;;;;;;;2.63;1.33;;;;;;;;;;5050790;28;20028;-79
2021/01/25 05:40:14;;;;;;;3.25;1.40;;;;;;;;;;5052368;28;20671;-79
2021/01/25 05:42:41;;;;;;;3.75;1.50;;;;;;;;;;5050861;28;20029;-79
2021/01/25 05:45:11;;;;;;;3.35;1.60;;;;;;;;;;5050851;28;20021;-78
2021/01/25 05:47:48;;;;;;;4.13;1.60;;;;;;;;;;5050782;28;20068;-74
2021/01/25 05:50:26;;;;;;;2.55;1.25;;;;;;;;;;5050843;28;20060;-79
2021/01/25 05:52:56;;;;;;;2.95;1.30;;;;;;;;;;5052018;28;20024;-79
2021/01/25 05:55:22;;;;;;;2.47;1.20;;;;;;;;;;5051389;28;20465;-79
2021/01/25 05:57:48;;;;;;;3.28;1.67;;;;;;;;;;5051882;28;20427;-78
2021/01/25 06:00:15;;;;;;;3.10;1.50;;;;;;;;;;5051965;28;20017;-76
2021/01/25 06:02:42;;;;;;;3.60;1.70;;;;;;;;;;5050643;28;20235;-79
2021/01/25 06:05:10;;;;;;;3.30;1.50;;;;;;;;;;5050279;28;20044;-79
2021/01/25 06:07:37;;;;;;;3.33;1.35;;;;;;;;;;5051603;28;20031;-78
2021/01/25 06:10:04;;;;;;;3.60;1.42;;;;;;;;;;5051806;28;20116;-78
2021/01/25 06:12:39;;;;;;;3.30;1.60;;;;;;;;;;5050342;28;20544;-79
2021/01/25 06:15:06;;;;;;;3.58;1.40;;;;;;;;;;5051581;28;20039;-78
2021/01/25 06:17:35;;;;;;;3.28;1.50;;;;;;;;;;5051343;28;20395;-79
2021/01/25 06:20:05;;;;;;;2.70;1.40;;;;;;;;;;5050151;28;20017;-78
2021/01/25 06:22:31;;;;;;;2.67;1.40;;;;;;;;;;5051308;28;20031;-77
2021/01/25 06:25:02;;;;;;;3.38;1.40;;;;;;;;;;5051543;28;20099;-74
2021/01/25 06:27:29;;;;;;;2.95;1.23;;;;;;;;;;5050114;28;20025;-78
2021/01/25 06:29:59;;;;;;;3.10;1.63;;;;;;;;;;5050096;28;20029;-79
2021/01/25 06:32:31;;;;;;;2.80;1.30;;;;;;;;;;5051388;28;20025;-79
2021/01/25 06:34:57;;;;;;;4.43;1.40;;;;;;;;;;5051086;28;20036;-79
2021/01/25 06:37:24;;;;;;;2.90;1.35;;;;;;;;;;5050879;28;20048;-79
2021/01/25 06:39:50;;;;;;;2.92;1.27;;;;;;;;;;5051772;28;20114;-79
2021/01/25 06:42:17;;;;;;;2.92;1.52;;;;;;;;;;5051355;28;20025;-76
2021/01/25 06:44:44;;;;;;;3.15;1.30;;;;;;;;;;5049749;28;20037;-78
2021/01/25 06:47:14;;;;;;;3.08;1.33;;;;;;;;;;5049553;28;20049;-75
2021/01/25 06:49:40;;;;;;;3.13;1.50;;;;;;;;;;5050000;28;20040;-79
2021/01/25 06:52:09;;;;;;;2.67;1.42;;;;;;;;;;5051292;28;20083;-79
2021/01/25 06:54:41;;;;;;;3.22;1.58;;;;;;;;;;5049980;28;20279;-78
2021/01/25 06:57:07;;;;;;;3.67;1.65;;;;;;;;;;5051120;28;20496;-79
2021/01/25 06:59:36;;;;;;;3.03;1.42;;;;;;;;;;5049953;28;20495;-78
2021/01/25 07:02:07;;;;;;;2.35;1.30;;;;;;;;;;5049783;28;20033;-79
2021/01/25 07:04:40;;;;;;;3.75;1.52;;;;;;;;;;5051149;28;20477;-74
2021/01/25 07:07:06;;;;;;;7.25;1.50;;;;;;;;;;5051264;28;20032;-75
2021/01/25 07:09:33;;;;;;;12.48;1.70;;;;;;;;;;5049372;28;20420;-74
2021/01/25 07:12:03;;;;;;;9.57;2.13;;;;;;;;;;5034863;28;20037;-76
2021/01/25 07:14:33;;;;;;;15.13;1.80;;;;;;;;;;5043112;28;20074;-76
2021/01/25 07:17:00;;;;;;;7.88;1.75;;;;;;;;;;5053877;28;20037;-78
2021/01/25 07:19:27;;;;;;;7.43;1.75;;;;;;;;;;5053533;28;20029;-76
2021/01/25 07:21:53;;;;;;;17.40;2.25;;;;;;;;;;5054751;28;20021;-75
2021/01/25 07:24:23;;;;;;;9.80;1.70;;;;;;;;;;5054607;28;20150;-79
2021/01/25 07:26:50;;;;;;;13.55;1.77;;;;;;;;;;5042177;28;20098;-78
2021/01/25 07:29:16;;;;;;;12.55;1.77;;;;;;;;;;5034658;28;20017;-76
2021/01/25 07:31:42;;;;;;;3.17;1.38;;;;;;;;;;5034470;28;20071;-76
2021/01/25 07:34:09;;;;;;;9.82;1.70;;;;;;;;;;5033239;28;20010;-78
2021/01/25 07:36:36;;;;;;;9.88;1.55;;;;;;;;;;5034095;28;20441;-75
2021/01/25 07:39:03;;;;;;;7.07;1.30;;;;;;;;;;5033158;28;20022;-75
2021/01/25 07:41:30;;;;;;;6.63;1.52;;;;;;;;;;5033251;28;20022;-76
2021/01/25 07:43:56;;;;;;;9.40;1.80;;;;;;;;;;5033110;28;20156;-78
2021/01/25 07:46:22;;;;;;;8.88;1.60;;;;;;;;;;5032922;28;20060;-75
2021/01/25 07:48:50;;;;;;;3.17;1.30;;;;;;;;;;5034428;28;20102;-78
2021/01/25 07:51:20;;;;;;;3.78;1.17;;;;;;;;;;5034478;28;20056;-76
2021/01/25 07:53:46;;;;;;;3.30;1.40;;;;;;;;;;5032946;28;20072;-76
2021/01/25 07:56:17;;;;;;;4.00;1.38;;;;;;;;;;5032728;28;20037;-74
2021/01/25 07:58:43;;;;;;;4.00;1.30;;;;;;;;;;5034109;28;20029;-75
2021/01/25 08:01:12;;;;;;;6.85;1.52;;;;;;;;;;5034068;28;20026;-75
2021/01/25 08:03:41;;;;;;;5.38;1.10;;;;;;;;;;5045816;28;20025;-79
2021/01/25 08:06:08;;;;;;;4.28;1.42;;;;;;;;;;5053793;28;20025;-79
2021/01/25 08:08:34;;;;;;;3.65;1.58;;;;;;;;;;5053847;28;20036;-76
2021/01/25 08:11:01;;;;;;;3.17;1.20;;;;;;;;;;5053850;28;20053;-78
2021/01/25 08:13:29;;;;;;;4.63;1.35;;;;;;;;;;5052341;28;20057;-74
2021/01/25 08:15:58;;;;;;;3.15;1.00;;;;;;;;;;5053392;28;20033;-75
2021/01/25 08:18:38;;;;;;;3.53;1.25;;;;;;;;;;5053108;28;20017;-78
2021/01/25 08:21:05;;;;;;;3.58;1.60;;;;;;;;;;5053348;28;20534;-75
2021/01/25 08:23:34;;;;;;;3.33;1.38;;;;;;;;;;5053264;28;20025;-75
2021/01/25 08:26:02;;;;;;;3.15;1.20;;;;;;;;;;5050965;28;20411;-74
2021/01/25 08:28:41;;;;;;;3.20;1.40;;;;;;;;;;5051768;28;20127;-78
2021/01/25 08:31:08;;;;;;;5.93;1.52;;;;;;;;;;5052997;28;20017;-77
2021/01/25 08:33:36;;;;;;;3.80;1.20;;;;;;;;;;5051603;28;20024;-75
2021/01/25 08:36:04;;;;;;;6.53;1.48;;;;;;;;;;5051497;28;20048;-75
2021/01/25 08:38:30;;;;;;;3.50;1.33;;;;;;;;;;5052860;28;20031;-81
2021/01/25 08:40:57;;;;;;;2.58;1.20;;;;;;;;;;5052183;28;20036;-80
2021/01/25 08:43:26;;;;;;;2.38;1.08;;;;;;;;;;5053105;28;20099;-74
2021/01/25 08:45:53;;;;;;;3.10;1.40;;;;;;;;;;5051763;28;20072;-75
2021/01/25 08:48:30;;;;;;;3.70;1.60;;;;;;;;;;5053155;28;20031;-81
2021/01/25 08:51:06;;;;;;;5.05;1.17;;;;;;;;;;5051708;28;20435;-75
2021/01/25 08:53:32;;;;;;;4.10;1.30;;;;;;;;;;5053267;28;20607;-78
2021/01/25 08:55:58;;;;;;;2.58;1.20;;;;;;;;;;5053081;28;20095;-75
2021/01/25 08:58:26;;;;;;;5.35;1.25;;;;;;;;;;5051869;28;20021;-79
2021/01/25 09:00:53;;;;;;;3.13;1.25;;;;;;;;;;5052618;28;20032;-76
2021/01/25 09:03:23;;;;;;;2.92;1.20;;;;;;;;;;5052191;28;20024;-79
2021/01/25 09:05:51;;;;;;;4.25;1.40;;;;;;;;;;5052588;28;20104;-74
2021/01/25 09:08:17;;;;;;;2.60;0.95;;;;;;;;;;5051562;28;20056;-78
2021/01/25 09:10:43;;;;;;;2.42;1.05;;;;;;;;;;5051404;28;20013;-78
2021/01/25 09:13:09;;;;;;;3.50;1.30;;;;;;;;;;5051446;28;20112;-77
2021/01/25 09:15:35;;;;;;;5.95;1.27;;;;;;;;;;5051348;28;20021;-76
2021/01/25 09:18:01;;;;;;;2.90;1.08;;;;;;;;;;5052772;28;20480;-76
2021/01/25 09:20:27;;;;;;;2.20;1.08;;;;;;;;;;5052372;28;20021;-76
2021/01/25 09:22:53;;;;;;;12.35;1.30;;;;;;;;;;5051833;28;20040;-74
2021/01/25 09:25:20;;;;;;;2.83;1.20;;;;;;;;;;5052492;28;20022;-73
2021/01/25 09:27:46;;;;;;;2.55;1.13;;;;;;;;;;5052245;28;20021;-78
2021/01/25 09:30:14;;;;;;;6.53;1.30;;;;;;;;;;5051522;28;20095;-77
2021/01/25 09:32:40;;;;;;;3.70;0.90;;;;;;;;;;5052100;28;20028;-75
2021/01/25 09:35:07;;;;;;;2.35;1.13;;;;;;;;;;5050670;28;20120;-79
2021/01/25 09:37:33;;;;;;;3.63;1.23;;;;;;;;;;5049377;28;20048;-80
2021/01/25 09:39:59;;;;;;;4.05;2.03;;;;;;;;;;5049380;28;20028;-80
2021/01/25 09:42:25;;;;;;;3.17;1.55;;;;;;;;;;5051823;28;20020;-80
2021/01/25 09:44:51;;;;;;;3.35;1.50;;;;;;;;;;5051689;28;20529;-77
2021/01/25 09:47:17;;;;;;;3.33;1.48;;;;;;;;;;5051969;28;20071;-74
2021/01/25 09:49:43;;;;;;;3.05;1.40;;;;;;;;;;5051945;28;20718;-81
2021/01/25 09:52:09;;;;;;;4.10;1.38;;;;;;;;;;5050798;28;20028;-75
2021/01/25 09:54:35;;;;;;;4.28;1.40;;;;;;;;;;5051694;28;20100;-70
2021/01/25 09:57:01;;;;;;;5.40;1.40;;;;;;;;;;5039748;28;20056;-78
2021/01/25 09:59:27;;;;;;;2.50;1.27;;;;;;;;;;5041621;28;20032;-72
2021/01/25 10:01:53;;;;;;;2.72;1.20;;;;;;;;;;5051703;28;20036;-75
2021/01/25 10:04:19;;;;;;;3.90;1.30;;;;;;;;;;5051681;28;20048;-78
2021/01/25 10:06:46;;;;;;;2.67;1.20;;;;;;;;;;5051362;28;20040;-76
2021/01/25 10:09:12;;;;;;;2.88;1.10;;;;;;;;;;5051793;28;20029;-78
2021/01/25 10:11:38;;;;;;;3.03;1.25;;;;;;;;;;5050392;28;20358;-79
2021/01/25 10:14:04;;;;;;;3.20;1.25;;;;;;;;;;5051468;28;20365;-74
2021/01/25 10:16:30;;;;;;;7.53;1.75;;;;;;;;;;5051208;28;20554;-78
2021/01/25 10:18:56;;;;;;;4.25;1.13;;;;;;;;;;5050090;28;20539;-79
2021/01/25 10:21:22;;;;;;;2.05;1.10;;;;;;;;;;5051328;28;20025;-75
2021/01/25 10:23:49;;;;;;;2.50;1.17;;;;;;;;;;5051317;28;20017;-75
2021/01/25 10:26:16;;;;;;;4.10;1.10;;;;;;;;;;5039858;28;20696;-77
2021/01/25 10:28:42;;;;;;;2.85;1.10;;;;;;;;;;5039433;28;20151;-75
2021/01/25 10:31:08;;;;;;;3.05;1.20;;;;;;;;;;5049883;28;20021;-72
2021/01/25 10:33:34;;;;;;;3.60;1.30;;;;;;;;;;5038824;28;20537;-75
2021/01/25 10:36:00;;;;;;;4.25;1.20;;;;;;;;;;5030107;28;20109;-75
2021/01/25 10:38:26;;;;;;;3.45;1.10;;;;;;;;;;5031336;28;20033;-76
2021/01/25 10:40:53;;;;;;;2.70;1.27;;;;;;;;;;5033500;28;20060;-84
2021/01/25 10:43:19;;;;;;;2.95;1.10;;;;;;;;;;5055209;28;20067;-81
2021/01/25 10:45:45;;;;;;;2.55;1.10;;;;;;;;;;5055360;28;20027;-85
2021/01/25 10:48:11;;;;;;;3.50;1.20;;;;;;;;;;5054231;28;20066;-73
2021/01/25 10:50:37;;;;;;;2.10;0.95;;;;;;;;;;5055402;28;20043;-78
2021/01/25 10:53:03;;;;;;;2.65;1.10;;;;;;;;;;5055147;28;20061;-77
2021/01/25 10:55:29;;;;;;;4.28;1.10;;;;;;;;;;5055085;28;20586;-74
2021/01/25 10:57:55;;;;;;;3.50;1.20;;;;;;;;;;5055266;28;20063;-74
2021/01/25 11:00:22;;;;;;;1.98;0.98;;;;;;;;;;5054632;28;20058;-71
2021/01/25 11:02:49;;;;;;;2.33;1.00;;;;;;;;;;5055328;28;20021;-80
2021/01/25 11:05:17;;;;;;;2.35;1.02;;;;;;;;;;5053136;28;20047;-77
2021/01/25 11:07:43;;;;;;;2.85;1.17;;;;;;;;;;5055210;28;20028;-77
2021/01/25 11:10:11;;;;;;;3.20;1.00;;;;;;;;;;5054612;28;20074;-73
2021/01/25 11:12:37;;;;;;;3.50;1.20;;;;;;;;;;5054736;28;20079;-76
2021/01/25 11:15:04;;;;;;;2.88;1.20;;;;;;;;;;5054893;28;20035;-73
2021/01/25 11:17:30;;;;;;;2.45;1.00;;;;;;;;;;5054839;28;20036;-73
2021/01/25 11:19:56;;;;;;;3.25;1.20;;;;;;;;;;5054921;28;20017;-74
2021/01/25 11:22:22;;;;;;;3.45;1.00;;;;;;;;;;5054917;28;20048;-73
2021/01/25 11:24:48;;;;;;;2.17;0.93;;;;;;;;;;5053581;28;20070;-73
2021/01/25 11:27:16;;;;;;;4.78;1.20;;;;;;;;;;5054704;28;20017;-72
2021/01/25 11:29:43;;;;;;;3.20;1.00;;;;;;;;;;5054342;28;20021;-81
2021/01/25 11:32:10;;;;;;;2.60;1.00;;;;;;;;;;5054376;28;20025;-78
2021/01/25 11:34:37;;;;;;;2.65;1.00;;;;;;;;;;5054683;28;20031;-84
2021/01/25 11:37:03;;;;;;;3.30;1.00;;;;;;;;;;5052579;28;20036;-81
2021/01/25 11:39:30;;;;;;;2.58;1.10;;;;;;;;;;5054248;28;20048;-78
2021/01/25 11:41:56;;;;;;;3.50;1.10;;;;;;;;;;5054766;28;20024;-76
2021/01/25 11:44:23;;;;;;;4.28;1.30;;;;;;;;;;5053300;28;20013;-82
2021/01/25 11:46:49;;;;;;;5.03;1.00;;;;;;;;;;5053263;28;20051;-84
2021/01/25 11:49:15;;;;;;;4.78;1.20;;;;;;;;;;5054507;28;20552;-82
2021/01/25 11:51:41;;;;;;;3.65;1.15;;;;;;;;;;5053070;28;20024;-84
2021/01/25 11:54:07;;;;;;;4.88;1.10;;;;;;;;;;5052245;28;20392;-79
2021/01/25 11:56:33;;;;;;;3.20;1.33;;;;;;;;;;5053861;28;20499;-72
2021/01/25 11:58:59;;;;;;;3.88;1.23;;;;;;;;;;5053982;28;20063;-72
2021/01/25 12:01:25;;;;;;;6.32;1.30;;;;;;;;;;5054026;28;20025;-72
2021/01/25 12:03:51;;;;;;;2.83;1.30;;;;;;;;;;5054113;28;20013;-73
2021/01/25 12:06:17;;;;;;;2.47;1.10;;;;;;;;;;5054104;28;20025;-74
2021/01/25 12:08:43;;;;;;;4.00;1.00;;;;;;;;;;5052915;28;20064;-73
2021/01/25 12:11:09;;;;;;;3.38;1.20;;;;;;;;;;5053663;28;20021;-73
2021/01/25 12:13:35;;;;;;;2.92;1.05;;;;;;;;;;5053834;28;20013;-77
2021/01/25 12:16:01;;;;;;;3.63;1.30;;;;;;;;;;5052559;28;20029;-77
2021/01/25 12:18:27;;;;;;;2.67;1.05;;;;;;;;;;5053853;28;20226;-77
2021/01/25 12:20:54;;;;;;;2.95;1.20;;;;;;;;;;5053771;28;20575;-79
2021/01/25 12:23:20;;;;;;;2.88;1.10;;;;;;;;;;5053920;28;20123;-73
2021/01/25 12:25:46;;;;;;;3.38;1.30;;;;;;;;;;5054067;28;20384;-73
2021/01/25 12:28:12;;;;;;;4.82;1.40;;;;;;;;;;5053601;28;20106;-75
2021/01/25 12:30:38;;;;;;;2.85;1.20;;;;;;;;;;5052337;28;20044;-72
2021/01/25 12:33:04;;;;;;;4.38;1.20;;;;;;;;;;5052119;28;20459;-86
2021/01/25 12:35:31;;;;;;;2.95;1.20;;;;;;;;;;5051683;28;20064;-76
2021/01/25 12:37:57;;;;;;;2.00;1.13;;;;;;;;;;5053197;28;20079;-80
2021/01/25 12:40:24;;;;;;;3.17;1.10;;;;;;;;;;5053411;28;20028;-77
2021/01/25 12:42:51;;;;;;;2.15;1.08;;;;;;;;;;5053382;28;20102;-75
2021/01/25 12:45:18;;;;;;;2.20;1.00;;;;;;;;;;5053263;28;20094;-76
2021/01/25 12:47:44;;;;;;;6.18;1.38;;;;;;;;;;5053021;28;20051;-75
2021/01/25 12:50:10;;;;;;;7.85;1.30;;;;;;;;;;5053392;28;20021;-82
2021/01/25 12:52:36;;;;;;;3.80;1.27;;;;;;;;;;5053076;28;20025;-82
2021/01/25 12:55:08;;;;;;;2.83;1.20;;;;;;;;;;5052186;28;20017;-84
2021/01/25 12:57:36;;;;;;;2.70;1.20;;;;;;;;;;5053302;28;20028;-87
2021/01/25 13:00:05;;;;;;;3.25;1.33;;;;;;;;;;5035097;28;20454;-83
2021/01/25 13:02:31;;;;;;;4.13;1.50;;;;;;;;;;5052751;28;20025;-84
2021/01/25 13:04:57;;;;;;;3.85;1.13;;;;;;;;;;5050445;28;20059;-84
2021/01/25 13:07:23;;;;;;;2.90;1.30;;;;;;;;;;5053491;28;20418;-87
2021/01/25 13:09:49;;;;;;;2.92;1.40;;;;;;;;;;5052198;28;20087;-86
2021/01/25 13:12:15;;;;;;;5.55;1.30;;;;;;;;;;5051653;28;20021;-79
2021/01/25 13:14:41;;;;;;;3.13;1.20;;;;;;;;;;5052327;28;20032;-79
2021/01/25 13:17:08;;;;;;;3.92;1.70;;;;;;;;;;5050705;28;20044;-79
2021/01/25 13:19:34;;;;;;;4.72;1.48;;;;;;;;;;5052729;28;20699;-80
2021/01/25 13:22:00;;;;;;;4.82;1.42;;;;;;;;;;5050938;28;20031;-80
2021/01/25 13:24:26;;;;;;;8.80;1.90;;;;;;;;;;5051110;28;20115;-79
2021/01/25 13:26:52;;;;;;;3.63;1.50;;;;;;;;;;5049297;28;20052;-79
2021/01/25 13:29:18;;;;;;;3.38;1.60;;;;;;;;;;5050444;28;20017;-79
2021/01/25 13:31:44;;;;;;;3.30;1.50;;;;;;;;;;5052404;28;20430;-80
2021/01/25 13:34:10;;;;;;;3.63;1.70;;;;;;;;;;5035346;28;20060;-80
2021/01/25 13:36:36;;;;;;;4.85;1.58;;;;;;;;;;5031015;28;20037;-79
2021/01/25 13:39:02;;;;;;;4.10;1.50;;;;;;;;;;5032210;28;20021;-79
2021/01/25 13:41:28;;;;;;;3.60;1.10;;;;;;;;;;5032113;28;20048;-79
2021/01/25 13:43:55;;;;;;;3.17;1.48;;;;;;;;;;5032161;28;20030;-79
2021/01/25 13:46:21;;;;;;;3.85;1.60;;;;;;;;;;5031937;28;20041;-79
2021/01/25 13:48:47;;;;;;;4.57;1.52;;;;;;;;;;5032025;28;20079;-80
2021/01/25 13:51:13;;;;;;;3.63;1.48;;;;;;;;;;5030278;28;20064;-79
2021/01/25 13:53:39;;;;;;;3.40;1.42;;;;;;;;;;5031800;28;20025;-79
2021/01/25 13:56:05;;;;;;;2.92;1.40;;;;;;;;;;5030668;28;20025;-79
2021/01/25 13:58:31;;;;;;;3.38;1.60;;;;;;;;;;5031847;28;20022;-79
2021/01/25 14:00:57;;;;;;;3.45;1.58;;;;;;;;;;5031060;28;20499;-78
2021/01/25 14:03:24;;;;;;;4.15;1.40;;;;;;;;;;5031928;28;20207;-78
2021/01/25 14:05:51;;;;;;;3.53;1.60;;;;;;;;;;5031862;28;20022;-78
2021/01/25 14:08:17;;;;;;;2.90;1.40;;;;;;;;;;5031835;28;20384;-79
2021/01/25 14:10:43;;;;;;;5.25;1.60;;;;;;;;;;5030428;28;20129;-79
2021/01/25 14:13:09;;;;;;;3.88;1.35;;;;;;;;;;5030537;28;20477;-73
2021/01/25 14:15:35;;;;;;;3.03;1.30;;;;;;;;;;5031872;28;20473;-72
2021/01/25 14:18:01;;;;;;;5.32;1.58;;;;;;;;;;5031631;28;20029;-73
2021/01/25 14:20:27;;;;;;;4.75;1.50;;;;;;;;;;5063677;28;20079;-80
2021/01/25 14:22:53;;;;;;;4.15;1.17;;;;;;;;;;5075506;28;20111;-81
2021/01/25 14:25:21;;;;;;;3.63;1.70;;;;;;;;;;5050033;28;20112;-78
2021/01/25 14:27:47;;;;;;;3.45;1.42;;;;;;;;;;5030050;28;20402;-80
2021/01/25 14:30:16;;;;;;;6.70;1.73;;;;;;;;;;5031536;28;20100;-78
2021/01/25 14:32:42;;;;;;;3.35;1.48;;;;;;;;;;5030610;28;20022;-83
2021/01/25 14:35:08;;;;;;;3.40;1.30;;;;;;;;;;5030764;28;20599;-85
2021/01/25 14:37:34;;;;;;;2.78;1.30;;;;;;;;;;5030297;28;20037;-77
2021/01/25 14:40:01;;;;;;;5.60;1.45;;;;;;;;;;5031149;28;20377;-85
2021/01/25 14:42:27;;;;;;;4.43;2.08;;;;;;;;;;5031072;28;20034;-84